createdAt,value
2022-12-04T00:01:26.543Z,101642.25
2022-12-04T00:03:57.076Z,101644.77
2022-12-04T00:06:25.953Z,101653.36
2022-12-04T00:08:54.958Z,101648.15
2022-12-04T00:11:25.128Z,101649.16
2022-12-04T00:13:53.575Z,101651.71
2022-12-04T00:16:25.004Z,101653.11
2022-12-04T00:18:53.572Z,101655.23
2022-12-04T00:21:23.259Z,101657.70
2022-12-04T00:23:51.779Z,101654.59
2022-12-04T00:26:25.485Z,101646.75
2022-12-04T00:28:54.127Z,101645.27
2022-12-04T00:31:25.563Z,101647.08
2022-12-04T00:33:54.007Z,101651.88
2022-12-04T00:36:25.064Z,101641.05
2022-12-04T00:38:53.403Z,101642.38
2022-12-04T00:41:24.954Z,101659.48
2022-12-04T00:43:53.433Z,101654.98
2022-12-04T00:46:21.953Z,101652.01
2022-12-04T00:48:51.318Z,101647.10
2022-12-04T00:51:24.904Z,101652.24
2022-12-04T00:53:53.557Z,101668.07
2022-12-04T00:56:24.528Z,101676.82
2022-12-04T00:58:57.947Z,101676.00
2022-12-04T01:01:26.447Z,101672.64
2022-12-04T01:03:57.031Z,101670.53
2022-12-04T01:06:28.314Z,101665.25
2022-12-04T01:08:57.871Z,101669.92
2022-12-04T01:11:27.494Z,101669.84
2022-12-04T01:13:56.173Z,101667.33
2022-12-04T01:16:31.050Z,101666.67
2022-12-04T01:19:00.359Z,101662.32
2022-12-04T01:21:28.965Z,101658.66
2022-12-04T01:23:57.419Z,101654.63
2022-12-04T01:26:25.447Z,101655.26
2022-12-04T01:28:53.560Z,101654.92
2022-12-04T01:31:22.716Z,101654.95
2022-12-04T01:33:51.940Z,101646.13
2022-12-04T01:36:24.097Z,101645.63
2022-12-04T01:38:52.595Z,101643.37
2022-12-04T01:41:23.759Z,101644.03
2022-12-04T01:44:13.962Z,101645.23
2022-12-04T01:46:43.959Z,101639.79
2022-12-04T01:49:20.029Z,101637.02
2022-12-04T01:51:56.240Z,101637.56
2022-12-04T01:54:32.777Z,101633.08
2022-12-04T01:57:11.929Z,101632.45
2022-12-04T01:59:59.361Z,101632.28
2022-12-04T02:02:36.050Z,101634.89
2022-12-04T02:05:07.623Z,101635.93
2022-12-04T02:07:36.783Z,101636.99
2022-12-04T02:10:08.828Z,101639.79
2022-12-04T02:12:45.934Z,101639.11
2022-12-04T02:15:30.199Z,101637.89
2022-12-04T02:18:06.977Z,101631.11
2022-12-04T02:20:50.173Z,101629.19
2022-12-04T02:23:33.417Z,101627.94
2022-12-04T02:26:13.494Z,101624.27
2022-12-04T02:28:47.059Z,101626.83
2022-12-04T02:31:22.649Z,101630.96
2022-12-04T02:34:16.946Z,101633.90
2022-12-04T02:36:57.953Z,101635.46
2022-12-04T02:39:36.412Z,101638.41
2022-12-04T02:42:13.771Z,101633.39
2022-12-04T02:44:47.201Z,101629.48
2022-12-04T02:47:19.534Z,101628.13
2022-12-04T02:49:53.280Z,101628.33
2022-12-04T02:52:25.892Z,101629.38
2022-12-04T02:55:06.731Z,101627.30
2022-12-04T02:57:40.998Z,101624.67
2022-12-04T03:00:09.914Z,101621.00
2022-12-04T03:02:51.505Z,101616.27
2022-12-04T03:05:27.936Z,101615.02
2022-12-04T03:08:01.052Z,101616.92
2022-12-04T03:10:34.675Z,101620.63
2022-12-04T03:13:18.591Z,101622.39
2022-12-04T03:15:57.516Z,101621.33
2022-12-04T03:18:38.403Z,101623.56
2022-12-04T03:21:14.517Z,101622.89
2022-12-04T03:23:51.045Z,101618.00
2022-12-04T03:26:27.675Z,101620.22
2022-12-04T03:29:18.342Z,101616.03
2022-12-04T03:31:58.679Z,101614.27
2022-12-04T03:34:34.210Z,101616.84
2022-12-04T03:37:09.075Z,101610.02
2022-12-04T03:40:02.592Z,101606.00
2022-12-04T03:42:46.734Z,101602.69
2022-12-04T03:45:31.360Z,101595.69
2022-12-04T03:48:06.853Z,101595.27
2022-12-04T03:50:42.029Z,101596.64
2022-12-04T03:53:19.153Z,101597.84
2022-12-04T03:56:02.330Z,101600.08
2022-12-04T03:58:33.597Z,101602.35
2022-12-04T04:01:04.147Z,101603.63
2022-12-04T04:03:36.994Z,101602.32
2022-12-04T04:06:11.611Z,101604.45
2022-12-04T04:08:43.390Z,101598.35
2022-12-04T04:11:19.760Z,101597.66
2022-12-04T04:14:21.936Z,101594.33
2022-12-04T04:17:24.930Z,101590.61
2022-12-04T04:20:36.719Z,101595.08
2022-12-04T04:23:26.125Z,101591.99
2022-12-04T04:25:57.109Z,101587.91
2022-12-04T04:28:35.380Z,101587.77
2022-12-04T04:31:26.545Z,101594.45
2022-12-04T04:34:03.927Z,101597.38
2022-12-04T04:36:43.632Z,101600.83
2022-12-04T04:39:31.615Z,101600.29
2022-12-04T04:42:14.586Z,101599.79
2022-12-04T04:44:42.639Z,101603.82
2022-12-04T04:47:18.643Z,101607.52
2022-12-04T04:49:51.294Z,101610.17
2022-12-04T04:52:21.887Z,101612.45
2022-12-04T04:54:49.936Z,101610.38
2022-12-04T04:57:28.744Z,101603.38
2022-12-04T04:59:57.044Z,101600.71
2022-12-04T05:02:27.075Z,101606.95
2022-12-04T05:04:56.138Z,101618.93
2022-12-04T05:07:24.198Z,101623.52
2022-12-04T05:09:52.140Z,101622.34
2022-12-04T05:12:19.955Z,101621.41
2022-12-04T05:14:48.475Z,101619.34
2022-12-04T05:17:16.260Z,101616.87
2022-12-04T05:19:57.569Z,101617.39
2022-12-04T05:22:31.668Z,101616.33
2022-12-04T05:24:59.985Z,101607.84
2022-12-04T05:27:29.571Z,101608.88
2022-12-04T05:29:59.142Z,101609.05
2022-12-04T05:32:29.591Z,101605.95
2022-12-04T05:34:58.355Z,101610.14
2022-12-04T05:37:26.413Z,101614.47
2022-12-04T05:39:54.813Z,101613.23
2022-12-04T05:42:22.967Z,101612.89
2022-12-04T05:44:50.862Z,101617.99
2022-12-04T05:47:18.781Z,101625.20
2022-12-04T05:49:46.712Z,101619.48
2022-12-04T05:52:14.738Z,101616.30
2022-12-04T05:54:42.767Z,101613.31
2022-12-04T05:57:10.635Z,101616.95
2022-12-04T05:59:38.458Z,101621.47
2022-12-04T06:02:06.505Z,101623.89
2022-12-04T06:04:34.337Z,101633.81
2022-12-04T06:07:02.101Z,101634.48
2022-12-04T06:09:30.105Z,101634.48
2022-12-04T06:11:58.592Z,101636.94
2022-12-04T06:14:26.797Z,101638.94
2022-12-04T06:16:55.036Z,101642.84
2022-12-04T06:19:23.542Z,101640.30
2022-12-04T06:21:53.302Z,101642.26
2022-12-04T06:24:24.086Z,101649.44
2022-12-04T06:27:26.351Z,101651.23
2022-12-04T06:29:45.107Z,101652.96
2022-12-04T06:32:16.518Z,101650.35
2022-12-04T06:34:51.715Z,101656.27
2022-12-04T06:37:20.905Z,101654.20
2022-12-04T06:39:49.021Z,101653.89
2022-12-04T06:42:17.446Z,101662.16
2022-12-04T06:44:45.452Z,101661.86
2022-12-04T06:47:13.226Z,101654.73
2022-12-04T06:49:41.512Z,101633.33
2022-12-04T06:52:09.440Z,101655.25
2022-12-04T06:54:37.358Z,101658.92
2022-12-04T06:57:05.406Z,101660.84
2022-12-04T06:59:33.952Z,101658.72
2022-12-04T07:02:05.103Z,101662.18
2022-12-04T07:04:33.264Z,101667.03
2022-12-04T07:07:01.222Z,101671.91
2022-12-04T07:09:29.030Z,101669.48
2022-12-04T07:11:58.139Z,101671.00
2022-12-04T07:14:29.525Z,101678.80
2022-12-04T07:16:58.696Z,101684.04
2022-12-04T07:19:26.518Z,101691.33
2022-12-04T07:21:54.447Z,101700.57
2022-12-04T07:24:25.715Z,101695.37
2022-12-04T07:26:53.431Z,101688.70
2022-12-04T07:29:21.328Z,101682.10
2022-12-04T07:31:49.457Z,101678.25
2022-12-04T07:34:17.273Z,101675.42
2022-12-04T07:36:45.151Z,101668.77
2022-12-04T07:39:13.545Z,101672.79
2022-12-04T07:41:41.606Z,101676.43
2022-12-04T07:44:09.548Z,101680.21
2022-12-04T07:46:37.782Z,101681.40
2022-12-04T07:49:05.607Z,101684.19
2022-12-04T07:51:33.434Z,101686.58
2022-12-04T07:54:04.549Z,101685.02
2022-12-04T07:56:33.575Z,101686.73
2022-12-04T07:59:02.642Z,101682.02
2022-12-04T08:01:31.911Z,101682.70
2022-12-04T08:04:01.628Z,101676.95
2022-12-04T08:06:32.593Z,101634.36
2022-12-04T08:09:03.627Z,101675.65
2022-12-04T08:11:36.197Z,101676.15
2022-12-04T08:14:08.889Z,101677.02
2022-12-04T08:16:40.323Z,101678.57
2022-12-04T08:19:08.308Z,101679.94
2022-12-04T08:21:36.111Z,101683.42
2022-12-04T08:24:04.429Z,101676.87
2022-12-04T08:26:33.983Z,101677.41
2022-12-04T08:29:02.725Z,101678.99
2022-12-04T08:31:33.346Z,101674.84
2022-12-04T08:34:03.403Z,101672.52
2022-12-04T08:36:31.414Z,101679.95
2022-12-04T08:38:59.726Z,101679.13
2022-12-04T08:41:27.750Z,101676.38
2022-12-04T08:43:56.463Z,101675.67
2022-12-04T08:46:26.826Z,101676.00
2022-12-04T08:48:55.321Z,101678.25
2022-12-04T08:51:26.436Z,101678.36
2022-12-04T08:53:56.201Z,101678.34
2022-12-04T08:56:26.133Z,101670.38
2022-12-04T08:58:56.074Z,101672.02
2022-12-04T09:01:25.972Z,101675.52
2022-12-04T09:03:54.572Z,101669.59
2022-12-04T09:06:23.653Z,101668.33
2022-12-04T09:08:59.645Z,101663.79
2022-12-04T09:11:28.383Z,101636.57
2022-12-04T09:13:56.382Z,101661.60
2022-12-04T09:16:26.229Z,101665.41
2022-12-04T09:18:55.217Z,101663.98
2022-12-04T09:21:25.707Z,101666.52
2022-12-04T09:23:54.159Z,101672.75
2022-12-04T09:26:29.612Z,101667.59
2022-12-04T09:29:03.723Z,101672.23
2022-12-04T09:31:32.229Z,101670.64
2022-12-04T09:34:01.282Z,101672.86
2022-12-04T09:36:30.359Z,101668.10
2022-12-04T09:39:03.291Z,101665.98
2022-12-04T09:41:40.499Z,101664.34
2022-12-04T09:44:18.062Z,101662.70
2022-12-04T09:47:21.229Z,101668.23
2022-12-04T09:49:54.613Z,101664.27
2022-12-04T09:52:47.222Z,101661.70
2022-12-04T09:55:32.471Z,101653.12
2022-12-04T09:58:02.726Z,101651.15
2022-12-04T10:00:35.007Z,101645.16
2022-12-04T10:03:06.571Z,101643.93
2022-12-04T10:06:01.685Z,101642.04
2022-12-04T10:08:34.778Z,101643.13
2022-12-04T10:11:08.519Z,101638.45
2022-12-04T10:14:04.215Z,101635.12
2022-12-04T10:17:04.272Z,101633.64
2022-12-04T10:20:11.182Z,101632.48
2022-12-04T10:22:54.828Z,101628.95
2022-12-04T10:25:25.310Z,101633.27
2022-12-04T10:28:01.976Z,101628.57
2022-12-04T10:30:35.067Z,101623.41
2022-12-04T10:33:38.206Z,101619.46
2022-12-04T10:36:07.440Z,101596.24
2022-12-04T10:38:58.919Z,101609.41
2022-12-04T10:41:43.491Z,101604.36
2022-12-04T10:44:16.748Z,101607.02
2022-12-04T10:46:46.560Z,101608.59
2022-12-04T10:49:19.865Z,101608.59
2022-12-04T10:51:48.467Z,101608.78
2022-12-04T10:54:30.926Z,101598.73
2022-12-04T10:57:10.349Z,101593.20
2022-12-04T10:59:52.676Z,101586.25
2022-12-04T11:02:38.148Z,101585.16
2022-12-04T11:05:22.763Z,101583.03
2022-12-04T11:07:51.813Z,101584.92
2022-12-04T11:10:39.949Z,101589.25
2022-12-04T11:13:16.936Z,101591.74
2022-12-04T11:15:53.890Z,101571.23
2022-12-04T11:18:46.947Z,101594.44
2022-12-04T11:21:19.211Z,101589.55
2022-12-04T11:23:49.890Z,101582.23
2022-12-04T11:26:31.603Z,101578.84
2022-12-04T11:29:01.903Z,101578.20
2022-12-04T11:31:31.406Z,101578.13
2022-12-04T11:34:07.692Z,101577.58
2022-12-04T11:36:42.949Z,101567.33
2022-12-04T11:39:13.673Z,101567.31
2022-12-04T11:41:42.261Z,101562.25
2022-12-04T11:44:31.186Z,101563.63
2022-12-04T11:47:02.493Z,101572.71
2022-12-04T11:49:32.935Z,101570.31
2022-12-04T11:52:06.670Z,101570.31
2022-12-04T11:55:01.436Z,101571.14
2022-12-04T11:57:42.331Z,101573.66
2022-12-04T12:00:21.667Z,101569.04
2022-12-04T12:02:52.686Z,101565.73
2022-12-04T12:05:54.724Z,101561.70
2022-12-04T12:08:47.260Z,101564.27
2022-12-04T12:11:37.990Z,101563.79
2022-12-04T12:14:24.306Z,101562.18
2022-12-04T12:17:10.764Z,101557.77
2022-12-04T12:19:38.710Z,101564.21
2022-12-04T12:22:21.967Z,101562.17
2022-12-04T12:25:06.174Z,101566.22
2022-12-04T12:27:54.819Z,101560.16
2022-12-04T12:30:24.503Z,101558.19
2022-12-04T12:32:59.978Z,101550.59
2022-12-04T12:35:39.177Z,101552.98
2022-12-04T12:38:15.151Z,101558.02
2022-12-04T12:40:47.572Z,101559.83
2022-12-04T12:43:41.237Z,101558.90
2022-12-04T12:46:23.036Z,101565.25
2022-12-04T12:49:00.191Z,101568.59
2022-12-04T12:51:47.106Z,101577.00
2022-12-04T12:54:23.942Z,101580.04
2022-12-04T12:56:57.447Z,101581.73
2022-12-04T12:59:28.176Z,101583.27
2022-12-04T13:02:02.667Z,101581.48
2022-12-04T13:04:45.818Z,101583.89
2022-12-04T13:07:44.980Z,101579.01
2022-12-04T13:10:24.423Z,101583.03
2022-12-04T13:13:06.830Z,101577.61
2022-12-04T13:16:17.530Z,101576.84
2022-12-04T13:18:58.553Z,101577.52
2022-12-04T13:21:42.685Z,101574.23
2022-12-04T13:24:22.763Z,101574.26
2022-12-04T13:27:18.559Z,101579.39
2022-12-04T13:30:11.305Z,101580.38
2022-12-04T13:33:06.858Z,101575.79
2022-12-04T13:36:04.124Z,101577.02
2022-12-04T13:38:58.027Z,101580.89
2022-12-04T13:41:28.170Z,101582.52
2022-12-04T13:44:00.628Z,101582.12
2022-12-04T13:46:38.022Z,101582.04
2022-12-04T13:49:21.626Z,101584.27
2022-12-04T13:51:50.366Z,101588.83
2022-12-04T13:54:34.064Z,101591.11
2022-12-04T13:57:22.871Z,101597.27
2022-12-04T14:00:02.301Z,101598.27
2022-12-04T14:02:49.645Z,101590.74
2022-12-04T14:05:33.877Z,101594.23
2022-12-04T14:08:26.334Z,101595.89
2022-12-04T14:11:19.133Z,101592.03
2022-12-04T14:13:56.659Z,101594.30
2022-12-04T14:16:35.477Z,101592.66
2022-12-04T14:19:05.322Z,101592.09
2022-12-04T14:21:45.436Z,101588.46
2022-12-04T14:24:33.262Z,101591.16
2022-12-04T14:27:11.681Z,101599.23
2022-12-04T14:29:49.568Z,101603.73
2022-12-04T14:32:26.311Z,101610.81
2022-12-04T14:34:57.623Z,101613.44
2022-12-04T14:37:35.555Z,101605.66
2022-12-04T14:40:16.338Z,101571.13
2022-12-04T14:42:49.048Z,101599.19
2022-12-04T14:45:38.926Z,101601.77
2022-12-04T14:48:23.638Z,101600.43
2022-12-04T14:50:59.955Z,101605.48
2022-12-04T14:53:35.513Z,101606.08
2022-12-04T14:56:21.753Z,101607.84
2022-12-04T14:58:50.478Z,101591.14
2022-12-04T15:01:28.772Z,101606.08
2022-12-04T15:03:59.975Z,101606.72
2022-12-04T15:06:33.143Z,101602.35
2022-12-04T15:09:23.131Z,101600.31
2022-12-04T15:12:15.708Z,101594.72
2022-12-04T15:14:47.010Z,101603.34
2022-12-04T15:17:17.193Z,101603.95
2022-12-04T15:19:46.069Z,101599.55
2022-12-04T15:22:26.279Z,101604.27
2022-12-04T15:24:55.885Z,101603.11
2022-12-04T15:27:32.010Z,101596.20
2022-12-04T15:30:02.548Z,101592.41
2022-12-04T15:32:32.050Z,101590.63
2022-12-04T15:35:09.486Z,101595.63
2022-12-04T15:37:38.329Z,101592.58
2022-12-04T15:40:10.085Z,101595.81
2022-12-04T15:42:38.903Z,101593.23
2022-12-04T15:45:10.138Z,101597.40
2022-12-04T15:47:41.054Z,101598.77
2022-12-04T15:50:15.214Z,101593.67
2022-12-04T15:52:58.374Z,101594.36
2022-12-04T15:55:29.559Z,101593.35
2022-12-04T15:58:04.990Z,101587.55
2022-12-04T16:00:39.675Z,101586.30
2022-12-04T16:03:24.267Z,101558.05
2022-12-04T16:06:18.323Z,101577.82
2022-12-04T16:08:49.844Z,101577.16
2022-12-04T16:11:19.685Z,101576.18
2022-12-04T16:14:01.891Z,101579.41
2022-12-04T16:16:30.279Z,101576.39
2022-12-04T16:18:58.542Z,101578.42
2022-12-04T16:21:32.280Z,101585.09
2022-12-04T16:24:08.207Z,101587.27
2022-12-04T16:26:36.191Z,101589.23
2022-12-04T16:29:04.174Z,101593.41
2022-12-04T16:31:32.620Z,101590.14
2022-12-04T16:34:01.140Z,101590.14
2022-12-04T16:36:29.218Z,101585.89
2022-12-04T16:38:57.122Z,101581.66
2022-12-04T16:41:28.193Z,101580.55
2022-12-04T16:43:58.790Z,101575.90
2022-12-04T16:46:28.590Z,101582.04
2022-12-04T16:48:58.220Z,101583.32
2022-12-04T16:51:28.909Z,101578.63
2022-12-04T16:53:57.225Z,101576.58
2022-12-04T16:56:25.376Z,101569.45
2022-12-04T16:58:53.439Z,101565.78
2022-12-04T17:01:29.960Z,101567.56
2022-12-04T17:04:00.523Z,101568.83
2022-12-04T17:06:28.599Z,101567.48
2022-12-04T17:08:56.469Z,101562.50
2022-12-04T17:11:31.945Z,101567.67
2022-12-04T17:14:02.987Z,101572.20
2022-12-04T17:16:32.080Z,101554.06
2022-12-04T17:19:01.511Z,101565.32
2022-12-04T17:21:32.480Z,101567.75
2022-12-04T17:24:01.220Z,101568.18
2022-12-04T17:26:31.186Z,101572.13
2022-12-04T17:28:59.135Z,101573.39
2022-12-04T17:31:28.782Z,101565.17
2022-12-04T17:33:57.711Z,101563.08
2022-12-04T17:36:36.484Z,101563.02
2022-12-04T17:39:07.511Z,101565.89
2022-12-04T17:41:37.065Z,101531.82
2022-12-04T17:44:11.303Z,101570.12
2022-12-04T17:46:39.399Z,101571.48
2022-12-04T17:49:16.495Z,101568.59
2022-12-04T17:51:49.093Z,101566.35
2022-12-04T17:54:18.360Z,101562.02
2022-12-04T17:56:56.222Z,101565.80
2022-12-04T17:59:28.565Z,101574.79
2022-12-04T18:01:57.722Z,101576.31
2022-12-04T18:04:25.601Z,101571.98
2022-12-04T18:06:53.728Z,101570.96
2022-12-04T18:09:21.660Z,101572.20
2022-12-04T18:11:49.632Z,101574.35
2022-12-04T18:14:19.537Z,101572.31
2022-12-04T18:16:53.117Z,101566.58
2022-12-04T18:19:30.556Z,101562.37
2022-12-04T18:21:58.787Z,101570.84
2022-12-04T18:24:29.368Z,101576.79
2022-12-04T18:26:57.416Z,101574.94
2022-12-04T18:29:29.480Z,101572.34
2022-12-04T18:31:57.411Z,101567.12
2022-12-04T18:34:25.700Z,101573.52
2022-12-04T18:36:53.774Z,101572.15
2022-12-04T18:39:24.590Z,101577.92
2022-12-04T18:41:56.628Z,101577.84
2022-12-04T18:44:25.009Z,101580.73
2022-12-04T18:46:53.613Z,101580.98
2022-12-04T18:49:26.915Z,101580.33
2022-12-04T18:51:54.931Z,101579.48
2022-12-04T18:54:23.900Z,101581.56
2022-12-04T18:56:51.998Z,101581.88
2022-12-04T18:59:22.972Z,101580.63
2022-12-04T19:01:52.021Z,101587.23
2022-12-04T19:04:22.322Z,101587.23
2022-12-04T19:06:53.534Z,101581.84
2022-12-04T19:09:47.093Z,101578.38
2022-12-04T19:12:13.078Z,101571.91
2022-12-04T19:14:41.407Z,101561.75
2022-12-04T19:17:09.335Z,101553.71
2022-12-04T19:19:38.027Z,101544.30
2022-12-04T19:22:06.096Z,101540.86
2022-12-04T19:24:33.902Z,101533.58
2022-12-04T19:27:10.131Z,101534.63
2022-12-04T19:29:42.632Z,101529.41
2022-12-04T19:32:11.530Z,101536.01
2022-12-04T19:34:39.646Z,101548.55
2022-12-04T19:37:09.622Z,101554.31
2022-12-04T19:39:38.096Z,101571.16
2022-12-04T19:42:06.270Z,101581.40
2022-12-04T19:44:50.252Z,101586.40
2022-12-04T19:47:18.900Z,101602.70
2022-12-04T19:49:47.065Z,101605.29
2022-12-04T19:52:15.843Z,101612.04
2022-12-04T19:54:44.028Z,101614.27
2022-12-04T19:57:13.986Z,101613.57
2022-12-04T19:59:46.231Z,101620.55
2022-12-04T20:02:15.200Z,101622.83
2022-12-04T20:04:43.473Z,101630.70
2022-12-04T20:07:11.710Z,101638.71
2022-12-04T20:09:39.914Z,101643.77
2022-12-04T20:12:07.897Z,101640.29
2022-12-04T20:14:35.793Z,101630.85
2022-12-04T20:17:05.731Z,101624.33
2022-12-04T20:19:33.881Z,101622.88
2022-12-04T20:22:01.742Z,101619.89
2022-12-04T20:24:30.093Z,101620.30
2022-12-04T20:26:58.106Z,101617.73
2022-12-04T20:29:25.903Z,101612.33
2022-12-04T20:31:54.052Z,101610.39
2022-12-04T20:34:22.118Z,101602.52
2022-12-04T20:36:49.986Z,101603.88
2022-12-04T20:39:19.577Z,101599.73
2022-12-04T20:41:47.680Z,101594.89
2022-12-04T20:44:18.477Z,101588.63
2022-12-04T20:46:47.507Z,101584.77
2022-12-04T20:49:21.695Z,101587.23
2022-12-04T20:51:52.183Z,101584.68
2022-12-04T20:54:22.170Z,101581.58
2022-12-04T20:56:52.940Z,101581.02
2022-12-04T20:59:22.841Z,101572.69
2022-12-04T21:01:52.139Z,101568.89
2022-12-04T21:04:20.341Z,101568.23
2022-12-04T21:06:49.207Z,101564.73
2022-12-04T21:09:23.659Z,101566.59
2022-12-04T21:11:55.671Z,101567.05
2022-12-04T21:14:50.401Z,101573.12
2022-12-04T21:17:19.783Z,101577.10
2022-12-04T21:19:50.414Z,101577.34
2022-12-04T21:22:19.308Z,101562.38
2022-12-04T21:24:47.480Z,101565.35
2022-12-04T21:27:20.796Z,101571.14
2022-12-04T21:29:50.141Z,101575.30
2022-12-04T21:32:19.348Z,101575.82
2022-12-04T21:34:47.605Z,101580.54
2022-12-04T21:37:18.264Z,101582.34
2022-12-04T21:39:46.213Z,101580.52
2022-12-04T21:42:33.153Z,101578.31
2022-12-04T21:45:02.809Z,101576.23
2022-12-04T21:47:30.823Z,101580.35
2022-12-04T21:49:59.697Z,101563.12
2022-12-04T21:52:27.880Z,101575.70
2022-12-04T21:54:56.178Z,101572.95
2022-12-04T21:57:24.186Z,101571.08
2022-12-04T21:59:52.593Z,101568.29
2022-12-04T22:02:20.850Z,101567.39
2022-12-04T22:04:49.144Z,101560.46
2022-12-04T22:07:17.190Z,101557.89
2022-12-04T22:09:46.725Z,101555.83
2022-12-04T22:12:41.158Z,101551.16
2022-12-04T22:15:02.653Z,101546.81
2022-12-04T22:17:32.306Z,101548.29
2022-12-04T22:20:00.246Z,101552.14
2022-12-04T22:22:28.374Z,101549.90
2022-12-04T22:24:56.293Z,101545.39
2022-12-04T22:27:24.132Z,101549.10
2022-12-04T22:29:52.376Z,101549.17
2022-12-04T22:32:20.667Z,101548.13
2022-12-04T22:34:49.377Z,101549.46
2022-12-04T22:37:17.530Z,101549.98
2022-12-04T22:39:45.576Z,101547.03
2022-12-04T22:42:13.430Z,101546.35
2022-12-04T22:44:41.747Z,101549.17
2022-12-04T22:47:09.764Z,101547.87
2022-12-04T22:49:37.652Z,101542.50
2022-12-04T22:52:05.752Z,101536.18
2022-12-04T22:54:33.797Z,101538.59
2022-12-04T22:57:01.739Z,101542.36
2022-12-04T22:59:29.885Z,101540.61
2022-12-04T23:01:58.055Z,101537.81
2022-12-04T23:04:26.637Z,101531.30
2022-12-04T23:06:54.532Z,101523.61
2022-12-04T23:09:22.766Z,101531.65
2022-12-04T23:11:52.160Z,101530.23
2022-12-04T23:14:21.013Z,101534.41
2022-12-04T23:16:49.324Z,101532.34
2022-12-04T23:19:19.245Z,101531.97
2022-12-04T23:21:54.978Z,101527.98
2022-12-04T23:24:25.652Z,101523.11
2022-12-04T23:26:53.696Z,101529.20
2022-12-04T23:29:52.138Z,101530.23
2022-12-04T23:32:09.643Z,101530.30
2022-12-04T23:34:38.356Z,101531.89
2022-12-04T23:37:06.205Z,101529.31
2022-12-04T23:39:34.202Z,101529.48
2022-12-04T23:42:02.040Z,101530.21
2022-12-04T23:44:30.061Z,101527.77
2022-12-04T23:46:58.208Z,101528.40
2022-12-04T23:49:26.182Z,101532.02
2022-12-04T23:51:54.007Z,101529.44
2022-12-04T23:54:21.985Z,101529.79
2022-12-04T23:56:49.946Z,101526.48
2022-12-04T23:59:17.821Z,101526.30
